createdAt,value
2018-12-04T00:00:38.328Z,3.60
2018-12-04T00:03:08.508Z,2.37
2018-12-04T00:05:38.057Z,2.27
2018-12-04T00:08:07.632Z,1.90
2018-12-04T00:10:36.877Z,1.90
2018-12-04T00:13:06.422Z,1.98
2018-12-04T00:15:36.030Z,1.83
2018-12-04T00:18:05.154Z,1.70
2018-12-04T00:20:34.185Z,1.73
2018-12-04T00:23:03.197Z,1.40
2018-12-04T00:25:32.535Z,1.75
2018-12-04T00:28:01.814Z,2.63
2018-12-04T00:30:31.085Z,1.57
2018-12-04T00:33:00.618Z,2.20
2018-12-04T00:35:29.910Z,2.40
2018-12-04T00:37:59.491Z,1.75
2018-12-04T00:40:29.818Z,1.90
2018-12-04T00:42:59.549Z,2.25
2018-12-04T00:45:28.935Z,1.67
2018-12-04T00:47:58.487Z,2.98
2018-12-04T00:50:29.803Z,2.52
2018-12-04T00:52:59.056Z,2.40
2018-12-04T00:55:28.136Z,1.47
2018-12-04T00:57:57.574Z,2.87
2018-12-04T01:00:26.516Z,2.13
2018-12-04T01:02:55.758Z,2.33
2018-12-04T01:05:25.027Z,2.80
2018-12-04T01:07:54.233Z,2.02
2018-12-04T01:10:23.692Z,1.83
2018-12-04T01:12:52.950Z,2.27
2018-12-04T01:15:22.489Z,1.50
2018-12-04T01:17:51.756Z,1.60
2018-12-04T01:20:20.704Z,2.30
2018-12-04T01:22:49.967Z,2.27
2018-12-04T01:25:19.528Z,1.95
2018-12-04T01:27:48.776Z,1.77
2018-12-04T01:30:18.048Z,2.40
2018-12-04T01:32:47.024Z,1.40
2018-12-04T01:35:16.291Z,2.17
2018-12-04T01:37:45.723Z,2.47
2018-12-04T01:40:14.975Z,1.63
2018-12-04T01:42:44.829Z,1.75
2018-12-04T01:45:13.743Z,2.00
2018-12-04T01:47:43.253Z,2.07
2018-12-04T01:50:13.003Z,1.37
2018-12-04T01:52:42.206Z,2.30
2018-12-04T01:55:11.779Z,2.27
2018-12-04T01:57:41.114Z,1.90
2018-12-04T02:00:10.855Z,1.83
2018-12-04T02:02:40.298Z,2.63
2018-12-04T02:05:09.848Z,1.73
2018-12-04T02:07:39.284Z,2.00
2018-12-04T02:10:08.761Z,1.03
2018-12-04T02:12:38.316Z,1.47
2018-12-04T02:15:07.549Z,2.93
2018-12-04T02:17:37.387Z,1.60
2018-12-04T02:20:06.273Z,1.60
2018-12-04T02:22:35.836Z,1.67
2018-12-04T02:25:04.860Z,2.73
2018-12-04T02:27:34.407Z,2.27
2018-12-04T02:30:03.683Z,1.60
2018-12-04T02:32:33.132Z,1.70
2018-12-04T02:35:02.402Z,1.77
2018-12-04T02:37:31.957Z,1.30
2018-12-04T02:40:02.201Z,2.17
2018-12-04T02:42:31.194Z,1.30
2018-12-04T02:45:00.136Z,1.67
2018-12-04T02:47:29.395Z,1.40
2018-12-04T02:49:58.934Z,1.87
2018-12-04T02:52:29.246Z,1.72
2018-12-04T02:54:59.750Z,1.33
2018-12-04T02:57:29.042Z,1.43
2018-12-04T02:59:58.140Z,1.53
2018-12-04T03:02:27.400Z,2.20
2018-12-04T03:04:56.408Z,2.80
2018-12-04T03:07:25.937Z,1.90
2018-12-04T03:09:55.200Z,2.53
2018-12-04T03:12:24.939Z,3.83
2018-12-04T03:14:54.199Z,2.13
2018-12-04T03:17:24.289Z,1.67
2018-12-04T03:19:53.820Z,2.55
2018-12-04T03:22:24.200Z,2.13
2018-12-04T03:24:53.456Z,0.80
2018-12-04T03:27:23.030Z,1.77
2018-12-04T03:29:52.290Z,1.60
2018-12-04T03:32:21.525Z,4.05
2018-12-04T03:34:50.741Z,2.20
2018-12-04T03:37:20.631Z,1.33
2018-12-04T03:39:50.072Z,2.60
2018-12-04T03:42:19.345Z,1.57
2018-12-04T03:44:48.915Z,1.92
2018-12-04T03:47:18.176Z,1.50
2018-12-04T03:49:47.434Z,1.70
2018-12-04T03:52:16.800Z,1.53
2018-12-04T03:54:46.246Z,1.53
2018-12-04T03:57:15.514Z,2.17
2018-12-04T03:59:45.079Z,1.82
2018-12-04T04:02:14.326Z,2.20
2018-12-04T04:04:44.187Z,2.45
2018-12-04T04:07:13.438Z,2.00
2018-12-04T04:09:42.976Z,1.40
2018-12-04T04:12:12.240Z,1.63
2018-12-04T04:14:41.977Z,2.10
2018-12-04T04:17:11.521Z,1.63
2018-12-04T04:19:41.329Z,2.12
2018-12-04T04:22:10.755Z,2.00
2018-12-04T04:24:40.581Z,2.33
2018-12-04T04:27:10.125Z,2.03
2018-12-04T04:29:39.402Z,1.90
2018-12-04T04:32:08.607Z,1.75
2018-12-04T04:34:37.828Z,1.97
2018-12-04T04:37:07.842Z,2.00
2018-12-04T04:39:37.448Z,3.60
2018-12-04T04:42:07.007Z,1.95
2018-12-04T04:44:36.387Z,2.30
2018-12-04T04:47:06.185Z,1.90
2018-12-04T04:49:35.441Z,1.15
2018-12-04T04:52:04.372Z,1.00
2018-12-04T04:54:33.639Z,1.80
2018-12-04T04:57:02.843Z,1.70
2018-12-04T04:59:32.418Z,1.93
2018-12-04T05:02:01.693Z,1.43
2018-12-04T05:04:31.130Z,1.72
2018-12-04T05:07:00.399Z,1.80
2018-12-04T05:09:29.676Z,1.23
2018-12-04T05:11:59.265Z,3.40
2018-12-04T05:14:29.601Z,2.60
2018-12-04T05:16:58.765Z,2.10
2018-12-04T05:19:29.545Z,2.05
2018-12-04T05:21:58.770Z,2.12
2018-12-04T05:24:29.597Z,1.30
2018-12-04T05:26:59.163Z,1.47
2018-12-04T05:29:29.547Z,2.00
2018-12-04T05:31:58.847Z,1.17
2018-12-04T05:34:28.256Z,1.33
2018-12-04T05:36:57.530Z,2.13
2018-12-04T05:39:27.272Z,2.10
2018-12-04T05:41:56.540Z,2.20
2018-12-04T05:44:25.795Z,1.70
2018-12-04T05:46:55.261Z,2.30
2018-12-04T05:49:24.513Z,2.60
2018-12-04T05:51:53.783Z,2.40
2018-12-04T05:54:23.364Z,2.67
2018-12-04T05:56:53.063Z,1.43
2018-12-04T05:59:22.340Z,1.90
2018-12-04T06:01:51.580Z,1.90
2018-12-04T06:04:20.836Z,2.63
2018-12-04T06:06:50.405Z,1.50
2018-12-04T06:09:19.671Z,1.87
2018-12-04T06:11:49.996Z,2.20
2018-12-04T06:14:19.353Z,1.90
2018-12-04T06:16:48.723Z,1.70
2018-12-04T06:19:17.625Z,2.23
2018-12-04T06:21:46.561Z,2.37
2018-12-04T06:24:16.284Z,2.00
2018-12-04T06:26:45.623Z,1.90
2018-12-04T06:29:14.912Z,1.93
2018-12-04T06:31:44.626Z,1.33
2018-12-04T06:34:14.102Z,1.30
2018-12-04T06:36:43.654Z,1.72
2018-12-04T06:39:13.377Z,2.22
2018-12-04T06:41:42.667Z,1.50
2018-12-04T06:44:11.968Z,2.33
2018-12-04T06:46:41.524Z,1.67
2018-12-04T06:49:10.770Z,1.50
2018-12-04T06:51:40.314Z,1.10
2018-12-04T06:54:09.568Z,1.50
2018-12-04T06:56:38.927Z,1.97
2018-12-04T06:59:08.447Z,1.77
2018-12-04T07:01:37.701Z,1.07
2018-12-04T07:04:06.972Z,1.90
2018-12-04T07:06:36.537Z,1.80
2018-12-04T07:09:05.951Z,1.60
2018-12-04T07:11:35.176Z,1.72
2018-12-04T07:14:03.876Z,1.50
2018-12-04T07:16:33.771Z,1.70
2018-12-04T07:19:03.024Z,1.70
2018-12-04T07:21:32.587Z,2.07
2018-12-04T07:24:01.836Z,2.53
2018-12-04T07:26:31.152Z,2.10
2018-12-04T07:29:00.584Z,2.40
2018-12-04T07:31:30.532Z,1.43
2018-12-04T07:33:59.801Z,1.77
2018-12-04T07:36:29.990Z,1.80
2018-12-04T07:38:59.548Z,1.42
2018-12-04T07:41:29.933Z,1.50
2018-12-04T07:44:00.483Z,1.50
2018-12-04T07:46:30.071Z,1.80
2018-12-04T07:48:59.622Z,2.10
2018-12-04T07:51:30.903Z,2.20
2018-12-04T07:54:00.156Z,1.50
2018-12-04T07:56:30.007Z,1.67
2018-12-04T07:58:59.259Z,2.13
2018-12-04T08:01:28.256Z,1.40
2018-12-04T08:03:57.687Z,1.50
2018-12-04T08:06:26.703Z,1.77
2018-12-04T08:08:55.964Z,1.30
2018-12-04T08:11:24.892Z,1.77
2018-12-04T08:13:54.615Z,1.77
2018-12-04T08:16:23.899Z,1.77
2018-12-04T08:18:53.151Z,0.60
2018-12-04T08:21:22.688Z,1.73
2018-12-04T08:23:51.943Z,1.47
2018-12-04T08:26:20.868Z,1.57
2018-12-04T08:28:50.119Z,2.03
2018-12-04T08:31:20.618Z,0.90
2018-12-04T08:33:49.892Z,1.43
2018-12-04T08:36:19.623Z,2.10
2018-12-04T08:38:48.890Z,1.93
2018-12-04T08:41:18.671Z,1.40
2018-12-04T08:43:48.211Z,1.77
2018-12-04T08:46:17.726Z,1.80
2018-12-04T08:48:47.004Z,1.40
2018-12-04T08:51:15.936Z,1.80
2018-12-04T08:53:45.503Z,1.50
2018-12-04T08:56:14.846Z,2.07
2018-12-04T08:58:44.106Z,2.53
2018-12-04T09:01:13.520Z,1.60
2018-12-04T09:03:43.043Z,2.23
2018-12-04T09:06:12.306Z,2.10
2018-12-04T09:08:42.056Z,1.80
2018-12-04T09:11:11.288Z,1.90
2018-12-04T09:13:40.830Z,1.65
2018-12-04T09:16:10.103Z,1.60
2018-12-04T09:18:39.388Z,1.53
2018-12-04T09:21:08.531Z,1.90
2018-12-04T09:23:38.097Z,1.20
2018-12-04T09:26:07.318Z,1.40
2018-12-04T09:28:36.005Z,1.40
2018-12-04T09:31:05.243Z,1.27
2018-12-04T09:33:35.011Z,1.70
2018-12-04T09:36:04.251Z,2.10
2018-12-04T09:38:34.124Z,1.60
2018-12-04T09:41:03.044Z,1.70
2018-12-04T09:43:32.335Z,2.57
2018-12-04T09:46:02.487Z,1.60
2018-12-04T09:48:32.144Z,2.60
2018-12-04T09:51:01.410Z,1.20
2018-12-04T09:53:30.965Z,4.10
2018-12-04T09:56:00.397Z,2.10
2018-12-04T09:58:30.280Z,2.20
2018-12-04T10:01:00.703Z,2.27
2018-12-04T10:03:30.298Z,2.03
2018-12-04T10:05:59.674Z,1.40
2018-12-04T10:08:29.787Z,1.20
2018-12-04T10:10:59.044Z,1.43
2018-12-04T10:13:28.729Z,1.93
2018-12-04T10:15:57.984Z,1.80
2018-12-04T10:18:26.897Z,1.63
2018-12-04T10:20:56.109Z,2.00
2018-12-04T10:23:25.381Z,2.13
2018-12-04T10:25:54.933Z,1.72
2018-12-04T10:28:23.874Z,1.50
2018-12-04T10:30:58.512Z,1.97
2018-12-04T10:33:28.111Z,1.93
2018-12-04T10:35:57.376Z,1.60
2018-12-04T10:38:26.943Z,1.60
2018-12-04T10:40:56.199Z,1.77
2018-12-04T10:43:25.177Z,1.97
2018-12-04T10:45:54.447Z,2.00
2018-12-04T10:48:23.441Z,2.10
2018-12-04T10:50:52.980Z,2.20
2018-12-04T10:53:22.257Z,2.60
2018-12-04T10:55:51.510Z,1.40
2018-12-04T10:58:21.548Z,3.17
2018-12-04T11:00:56.172Z,2.00
2018-12-04T11:03:24.932Z,2.23
2018-12-04T11:05:54.232Z,1.73
2018-12-04T11:08:23.462Z,2.00
2018-12-04T11:10:53.015Z,1.90
2018-12-04T11:13:22.308Z,1.80
2018-12-04T11:15:51.234Z,1.43
2018-12-04T11:18:20.168Z,1.90
2018-12-04T11:20:49.433Z,2.47
2018-12-04T11:23:19.150Z,1.87
2018-12-04T11:25:48.468Z,2.97
2018-12-04T11:28:18.008Z,2.40
2018-12-04T11:30:47.232Z,1.50
2018-12-04T11:33:16.498Z,1.60
2018-12-04T11:35:46.057Z,1.40
2018-12-04T11:38:15.311Z,2.00
2018-12-04T11:40:44.601Z,2.15
2018-12-04T11:43:13.826Z,1.53
2018-12-04T11:45:43.478Z,1.70
2018-12-04T11:48:12.737Z,1.80
2018-12-04T11:50:42.301Z,2.47
2018-12-04T11:53:11.564Z,2.13
2018-12-04T11:55:41.013Z,2.00
2018-12-04T11:58:11.179Z,1.70
2018-12-04T12:00:40.216Z,1.60
2018-12-04T12:03:10.036Z,1.80
2018-12-04T12:05:39.739Z,1.90
2018-12-04T12:08:09.241Z,1.97
2018-12-04T12:10:38.514Z,1.57
2018-12-04T12:13:07.912Z,2.40
2018-12-04T12:15:37.477Z,2.27
2018-12-04T12:18:06.728Z,2.30
2018-12-04T12:20:36.318Z,2.50
2018-12-04T12:23:05.232Z,1.83
2018-12-04T12:25:34.594Z,2.17
2018-12-04T12:28:03.856Z,1.20
2018-12-04T12:30:33.417Z,2.00
2018-12-04T12:33:02.695Z,1.87
2018-12-04T12:35:32.436Z,1.53
2018-12-04T12:38:01.702Z,2.30
2018-12-04T12:40:32.476Z,1.77
2018-12-04T12:43:01.904Z,2.00
2018-12-04T12:45:31.830Z,2.07
2018-12-04T12:48:01.338Z,1.97
2018-12-04T12:50:30.797Z,1.80
2018-12-04T12:53:00.340Z,1.70
2018-12-04T12:55:30.738Z,1.67
2018-12-04T12:58:00.011Z,1.57
2018-12-04T13:00:30.799Z,1.80
2018-12-04T13:03:00.359Z,1.57
2018-12-04T13:05:30.736Z,2.02
2018-12-04T13:08:00.300Z,1.42
2018-12-04T13:10:30.746Z,1.70
2018-12-04T13:12:59.724Z,2.87
2018-12-04T13:15:30.841Z,1.70
2018-12-04T13:18:00.417Z,2.30
2018-12-04T13:20:30.786Z,2.27
2018-12-04T13:23:00.419Z,1.87
2018-12-04T13:25:30.442Z,2.45
2018-12-04T13:27:59.895Z,2.40
2018-12-04T13:30:30.875Z,1.60
2018-12-04T13:33:00.410Z,2.30
2018-12-04T13:35:30.764Z,1.85
2018-12-04T13:38:00.094Z,1.95
2018-12-04T13:40:30.552Z,1.90
2018-12-04T13:42:59.495Z,1.67
2018-12-04T13:45:28.756Z,1.50
2018-12-04T13:48:00.849Z,2.40
2018-12-04T13:50:26.721Z,1.80
2018-12-04T13:52:57.347Z,1.90
2018-12-04T13:55:26.623Z,1.60
2018-12-04T13:57:55.902Z,2.20
2018-12-04T14:00:25.434Z,2.12
2018-12-04T14:02:54.380Z,1.60
2018-12-04T14:05:23.841Z,3.00
2018-12-04T14:07:53.072Z,1.57
2018-12-04T14:10:22.279Z,1.93
2018-12-04T14:12:51.568Z,2.03
2018-12-04T14:15:21.070Z,1.53
2018-12-04T14:17:50.543Z,2.00
2018-12-04T14:20:19.806Z,2.07
2018-12-04T14:22:49.071Z,1.87
2018-12-04T14:25:18.615Z,2.07
2018-12-04T14:27:49.202Z,1.57
2018-12-04T14:30:17.454Z,2.00
2018-12-04T14:32:47.113Z,1.80
2018-12-04T14:35:16.704Z,1.57
2018-12-04T14:37:45.920Z,2.00
2018-12-04T14:40:15.171Z,2.43
2018-12-04T14:42:44.732Z,3.42
2018-12-04T14:45:13.657Z,3.00
2018-12-04T14:47:43.416Z,2.17
2018-12-04T14:50:12.732Z,2.17
2018-12-04T14:52:42.183Z,2.27
2018-12-04T14:55:11.731Z,2.43
2018-12-04T14:57:40.692Z,1.90
2018-12-04T15:00:09.347Z,2.17
2018-12-04T15:02:38.576Z,2.15
2018-12-04T15:05:07.266Z,2.37
2018-12-04T15:07:36.034Z,2.37
2018-12-04T15:10:05.039Z,2.55
2018-12-04T15:12:35.891Z,3.63
2018-12-04T15:15:04.786Z,3.90
2018-12-04T15:17:34.808Z,2.90
2018-12-04T15:20:03.716Z,2.40
2018-12-04T15:22:33.098Z,4.77
2018-12-04T15:25:03.317Z,3.00
2018-12-04T15:27:32.391Z,2.98
2018-12-04T15:30:01.844Z,3.80
2018-12-04T15:32:31.167Z,24.47
2018-12-04T15:35:00.692Z,10.60
2018-12-04T15:37:31.239Z,11.20
2018-12-04T15:40:01.016Z,5.93
2018-12-04T15:42:31.158Z,5.33
2018-12-04T15:45:00.687Z,6.67
2018-12-04T15:47:31.120Z,16.17
2018-12-04T15:50:00.417Z,14.10
2018-12-04T15:52:31.275Z,6.75
2018-12-04T15:55:00.788Z,8.30
2018-12-04T15:57:31.200Z,10.72
2018-12-04T16:00:00.606Z,4.80
2018-12-04T16:02:30.794Z,7.15
2018-12-04T16:05:00.053Z,5.57
2018-12-04T16:07:29.332Z,5.70
2018-12-04T16:09:58.872Z,3.77
2018-12-04T16:12:29.045Z,4.50
2018-12-04T16:14:58.872Z,3.07
2018-12-04T16:17:28.134Z,2.77
2018-12-04T16:19:57.878Z,2.83
2018-12-04T16:22:27.908Z,2.80
2018-12-04T16:24:57.167Z,2.77
2018-12-04T16:27:26.426Z,2.60
2018-12-04T16:29:56.191Z,3.83
2018-12-04T16:32:25.104Z,3.23
2018-12-04T16:34:54.029Z,3.97
2018-12-04T16:37:23.065Z,3.30
2018-12-04T16:39:52.315Z,4.63
2018-12-04T16:42:22.316Z,3.17
2018-12-04T16:44:51.842Z,3.08
2018-12-04T16:47:20.786Z,3.10
2018-12-04T16:49:50.057Z,2.83
2018-12-04T16:52:19.207Z,4.00
2018-12-04T16:54:48.473Z,2.70
2018-12-04T16:57:18.514Z,3.20
2018-12-04T16:59:48.341Z,2.73
2018-12-04T17:02:17.259Z,2.73
2018-12-04T17:04:46.582Z,2.93
2018-12-04T17:07:16.317Z,2.70
2018-12-04T17:09:45.581Z,2.60
2018-12-04T17:12:15.047Z,3.63
2018-12-04T17:14:44.588Z,3.00
2018-12-04T17:17:13.907Z,3.90
2018-12-04T17:19:43.352Z,3.53
2018-12-04T17:22:12.283Z,5.30
2018-12-04T17:24:41.530Z,4.27
2018-12-04T17:27:10.999Z,4.50
2018-12-04T17:29:40.540Z,4.90
2018-12-04T17:32:10.110Z,4.40
2018-12-04T17:34:39.084Z,4.63
2018-12-04T17:37:08.457Z,4.40
2018-12-04T17:39:38.643Z,5.47
2018-12-04T17:42:08.099Z,4.83
2018-12-04T17:44:40.389Z,5.20
2018-12-04T17:47:06.641Z,4.40
2018-12-04T17:49:36.220Z,3.90
2018-12-04T17:52:05.675Z,4.07
2018-12-04T17:54:35.358Z,3.90
2018-12-04T17:57:04.019Z,3.07
2018-12-04T17:59:33.378Z,3.33
2018-12-04T18:02:02.646Z,4.33
2018-12-04T18:04:31.648Z,3.03
2018-12-04T18:07:00.698Z,5.20
2018-12-04T18:09:31.499Z,2.90
2018-12-04T18:12:00.486Z,4.10
2018-12-04T18:14:29.423Z,3.23
2018-12-04T18:16:58.674Z,3.87
2018-12-04T18:19:28.014Z,3.10
2018-12-04T18:21:56.942Z,2.93
2018-12-04T18:24:26.208Z,3.90
2018-12-04T18:26:55.458Z,4.20
2018-12-04T18:29:25.458Z,4.47
2018-12-04T18:31:54.737Z,3.83
2018-12-04T18:34:24.276Z,5.17
2018-12-04T18:36:53.540Z,4.20
2018-12-04T18:39:22.852Z,4.85
2018-12-04T18:41:51.891Z,3.87
2018-12-04T18:44:21.107Z,3.80
2018-12-04T18:46:50.838Z,4.07
2018-12-04T18:49:20.323Z,7.03
2018-12-04T18:51:49.386Z,5.20
2018-12-04T18:54:18.653Z,4.73
2018-12-04T18:56:48.188Z,4.33
2018-12-04T18:59:17.467Z,4.00
2018-12-04T19:01:47.019Z,4.30
2018-12-04T19:04:16.039Z,4.97
2018-12-04T19:06:45.627Z,4.70
2018-12-04T19:09:15.167Z,4.45
2018-12-04T19:11:44.447Z,4.42
2018-12-04T19:14:14.176Z,5.70
2018-12-04T19:16:43.406Z,5.17
2018-12-04T19:19:12.696Z,5.57
2018-12-04T19:21:41.920Z,5.08
2018-12-04T19:24:12.064Z,5.30
2018-12-04T19:26:40.982Z,4.93
2018-12-04T19:29:10.331Z,4.73
2018-12-04T19:31:39.600Z,6.08
2018-12-04T19:34:08.889Z,6.13
2018-12-04T19:36:38.443Z,6.58
2018-12-04T19:39:07.153Z,6.57
2018-12-04T19:41:36.121Z,6.78
2018-12-04T19:44:04.819Z,6.03
2018-12-04T19:46:35.915Z,5.65
2018-12-04T19:49:05.184Z,5.50
2018-12-04T19:51:34.764Z,5.93
2018-12-04T19:54:03.973Z,6.17
2018-12-04T19:56:34.710Z,6.80
2018-12-04T19:59:04.409Z,7.10
2018-12-04T20:01:33.855Z,5.77
2018-12-04T20:04:03.413Z,6.73
2018-12-04T20:06:32.540Z,6.40
2018-12-04T20:09:01.572Z,5.30
2018-12-04T20:11:31.790Z,6.05
2018-12-04T20:14:01.347Z,6.10
2018-12-04T20:16:31.768Z,5.80
2018-12-04T20:19:01.033Z,6.10
2018-12-04T20:21:31.649Z,5.92
2018-12-04T20:24:00.846Z,6.70
2018-12-04T20:26:31.844Z,6.70
2018-12-04T20:29:01.426Z,6.25
2018-12-04T20:31:31.879Z,7.37
2018-12-04T20:34:00.912Z,5.93
2018-12-04T20:36:31.517Z,5.72
2018-12-04T20:39:00.553Z,5.20
2018-12-04T20:41:29.548Z,4.30
2018-12-04T20:43:58.816Z,7.57
2018-12-04T20:46:28.107Z,4.77
2018-12-04T20:48:57.616Z,7.80
2018-12-04T20:51:26.872Z,7.03
2018-12-04T20:53:56.430Z,7.05
2018-12-04T20:56:25.694Z,7.87
2018-12-04T20:58:54.646Z,7.30
2018-12-04T21:01:23.658Z,8.47
2018-12-04T21:03:52.949Z,8.67
2018-12-04T21:06:22.508Z,7.80
2018-12-04T21:08:52.452Z,10.60
2018-12-04T21:11:22.412Z,9.43
2018-12-04T21:13:51.367Z,8.40
2018-12-04T21:16:20.715Z,7.73
2018-12-04T21:18:50.010Z,6.97
2018-12-04T21:21:19.555Z,7.53
2018-12-04T21:23:50.119Z,6.13
2018-12-04T21:26:19.433Z,5.67
2018-12-04T21:28:54.147Z,6.50
2018-12-04T21:31:29.049Z,6.37
2018-12-04T21:34:03.971Z,5.37
2018-12-04T21:36:38.777Z,5.33
2018-12-04T21:39:11.145Z,5.30
2018-12-04T21:41:46.065Z,5.53
2018-12-04T21:44:21.027Z,5.12
2018-12-04T21:46:55.541Z,6.10
2018-12-04T21:49:24.238Z,6.93
2018-12-04T21:51:53.719Z,6.00
2018-12-04T21:54:22.978Z,8.43
2018-12-04T21:56:51.962Z,6.00
2018-12-04T21:59:21.232Z,5.47
2018-12-04T22:01:50.832Z,5.80
2018-12-04T22:04:20.164Z,6.40
2018-12-04T22:06:49.700Z,6.20
2018-12-04T22:09:18.977Z,7.13
2018-12-04T22:11:48.799Z,6.60
2018-12-04T22:14:18.076Z,6.97
2018-12-04T22:16:47.843Z,5.70
2018-12-04T22:19:17.120Z,5.90
2018-12-04T22:21:46.711Z,6.20
2018-12-04T22:24:15.783Z,5.83
2018-12-04T22:26:44.991Z,5.30
2018-12-04T22:29:14.269Z,5.93
2018-12-04T22:31:43.824Z,5.83
2018-12-04T22:34:13.100Z,5.83
2018-12-04T22:36:42.634Z,6.15
2018-12-04T22:39:11.909Z,5.27
2018-12-04T22:41:42.042Z,5.65
2018-12-04T22:44:11.302Z,5.17
2018-12-04T22:46:40.844Z,5.45
2018-12-04T22:49:09.777Z,5.60
2018-12-04T22:51:39.076Z,5.17
2018-12-04T22:54:08.326Z,5.57
2018-12-04T22:56:37.931Z,5.15
2018-12-04T22:59:07.147Z,5.13
2018-12-04T23:01:36.393Z,5.60
2018-12-04T23:04:05.279Z,5.97
2018-12-04T23:07:15.220Z,5.50
2018-12-04T23:09:44.507Z,5.23
2018-12-04T23:12:13.772Z,6.60
2018-12-04T23:14:43.060Z,5.57
2018-12-04T23:17:12.314Z,5.57
2018-12-04T23:19:41.587Z,5.60
2018-12-04T23:22:10.847Z,5.60
2018-12-04T23:24:40.145Z,5.37
2018-12-04T23:27:09.635Z,5.40
2018-12-04T23:29:38.943Z,5.80
2018-12-04T23:32:08.205Z,5.73
2018-12-04T23:34:37.485Z,5.33
2018-12-04T23:37:06.746Z,5.97
2018-12-04T23:39:36.024Z,5.97
2018-12-04T23:42:06.008Z,5.80
2018-12-04T23:44:35.269Z,5.93
2018-12-04T23:47:04.628Z,5.43
2018-12-04T23:49:33.896Z,5.50
2018-12-04T23:52:03.178Z,6.17
2018-12-04T23:54:32.673Z,6.43
2018-12-04T23:57:01.956Z,5.00
2018-12-04T23:59:31.206Z,4.60
